Time;durP1;ratioP1;P1;durP2;ratioP2;P2;SDS_P1;SDS_P2;PMS_P1;PMS_P2;Temp;Humidity;BMP_temperature;BMP_pressure;BME280_temperature;BME280_humidity;BME280_pressure;Samples;Min_cycle;Max_cycle;Signal;HPM_P1;HPM_P2
2022/06/05 00:00:53;;;;;;;6.72;4.22;;;;;;;21.53;44.00;101679.94;4973587;28;109037;-57
2022/06/05 00:04:03;;;;;;;6.20;4.40;;;;;;;21.48;43.95;101672.22;4989077;28;122997;-57
2022/06/05 00:06:37;;;;;;;7.30;4.22;;;;;;;21.44;44.03;101678.84;4969648;28;124019;-57
2022/06/05 00:09:10;;;;;;;7.13;4.47;;;;;;;21.43;43.91;101685.16;4973177;28;109758;-57
2022/06/05 00:12:02;;;;;;;8.15;4.82;;;;;;;21.41;44.11;101676.34;4986080;28;108887;-57
2022/06/05 00:14:30;;;;;;;5.80;4.07;;;;;;;21.39;44.35;101667.53;4972322;28;124626;-57
2022/06/05 00:16:57;;;;;;;7.18;4.75;;;;;;;21.39;44.32;101667.53;4973188;28;124039;-57
2022/06/05 00:19:24;;;;;;;7.35;4.57;;;;;;;21.37;44.24;101670.31;4971163;28;109647;-57
2022/06/05 00:21:51;;;;;;;6.07;4.22;;;;;;;21.37;44.52;101658.69;4972583;28;108717;-57
2022/06/05 00:24:19;;;;;;;6.55;3.80;;;;;;;21.35;44.22;101649.88;4971442;28;124086;-57
2022/06/05 00:27:18;;;;;;;8.82;4.70;;;;;;;21.33;44.45;101635.66;4972404;28;123715;-57
2022/06/05 00:30:03;;;;;;;6.47;4.45;;;;;;;21.30;44.42;101625.97;4973530;28;109186;-57
2022/06/05 00:32:30;;;;;;;5.50;4.40;;;;;;;21.29;44.61;101628.81;4972299;28;108709;-57
2022/06/05 00:34:58;;;;;;;6.90;4.32;;;;;;;21.28;44.62;101627.06;4970529;28;124140;-57
2022/06/05 00:37:51;;;;;;;6.50;4.38;;;;;;;21.27;44.52;101628.06;4967966;28;124033;-57
2022/06/05 00:40:52;;;;;;;5.38;4.10;;;;;;;21.24;44.46;101625.59;4972760;28;109136;-57
2022/06/05 00:43:22;;;;;;;7.13;4.50;;;;;;;21.22;44.67;101632.94;4971646;28;109108;-58
2022/06/05 00:45:51;;;;;;;5.43;4.15;;;;;;;21.19;44.74;101634.91;4971865;28;123177;-57
2022/06/05 00:48:19;;;;;;;7.15;4.30;;;;;;;21.17;44.57;101642.25;4970261;28;124470;-58
2022/06/05 00:50:48;;;;;;;5.72;4.20;;;;;;;21.15;44.54;101635.25;4971440;28;109046;-58
2022/06/05 00:53:16;;;;;;;7.72;4.60;;;;;;;21.12;44.86;101632.81;4974434;28;109395;-58
2022/06/05 00:55:47;;;;;;;6.70;4.75;;;;;;;21.10;44.79;101635.63;4970050;28;123956;-58
2022/06/05 00:58:16;;;;;;;7.57;4.63;;;;;;;21.06;44.80;101634.16;4970556;28;123642;-58
2022/06/05 01:00:48;;;;;;;7.05;4.75;;;;;;;21.05;44.94;101632.41;4971986;28;109896;-58
2022/06/05 01:03:16;;;;;;;7.78;4.72;;;;;;;21.03;45.03;101628.97;4973669;28;109818;-58
2022/06/05 01:05:44;;;;;;;8.60;4.43;;;;;;;20.99;44.93;101627.50;4982105;28;123092;-58
2022/06/05 01:08:13;;;;;;;8.40;4.75;;;;;;;20.95;45.13;101615.25;4970285;28;124335;-58
2022/06/05 01:10:45;;;;;;;6.82;4.70;;;;;;;20.93;44.93;101617.22;4971915;28;109232;-57
2022/06/05 01:13:35;;;;;;;8.65;4.88;;;;;;;20.89;44.92;101621.97;4971783;28;109255;-58
2022/06/05 01:16:20;;;;;;;6.03;4.18;;;;;;;20.87;45.16;101623.94;4970655;28;124008;-58
2022/06/05 01:19:17;;;;;;;6.30;4.83;;;;;;;20.80;45.13;101623.53;4968474;28;123972;-58
2022/06/05 01:22:02;;;;;;;7.03;4.40;;;;;;;20.79;45.35;101626.31;4973002;28;112384;-58
2022/06/05 01:24:59;;;;;;;6.95;4.60;;;;;;;20.75;45.06;101620.31;4971401;28;109208;-57
2022/06/05 01:27:31;;;;;;;7.65;4.53;;;;;;;20.73;45.31;101622.25;4969953;28;123073;-57
2022/06/05 01:30:08;;;;;;;7.45;4.85;;;;;;;20.71;45.34;101618.81;4969031;28;123719;-57
2022/06/05 01:32:40;;;;;;;6.55;4.28;;;;;;;20.70;45.32;101617.13;4973148;28;109245;-57
2022/06/05 01:35:17;;;;;;;7.22;5.05;;;;;;;20.69;45.42;101612.72;4973661;28;109466;-57
2022/06/05 01:37:49;;;;;;;6.70;4.40;;;;;;;20.67;45.66;101611.97;4970199;28;125833;-58
2022/06/05 01:40:25;;;;;;;7.78;4.88;;;;;;;20.64;45.49;101601.41;4972080;28;122915;-58
2022/06/05 01:43:08;;;;;;;8.90;4.85;;;;;;;20.62;45.76;101587.22;4973070;28;109302;-58
2022/06/05 01:45:44;;;;;;;7.57;4.65;;;;;;;20.59;45.75;101587.44;4971492;28;109436;-58
2022/06/05 01:48:20;;;;;;;7.10;5.00;;;;;;;20.56;45.90;101587.66;4967889;28;123972;-58
2022/06/05 01:51:12;;;;;;;7.75;5.15;;;;;;;20.53;45.75;101588.75;4969238;28;124353;-58
2022/06/05 01:53:43;;;;;;;9.20;5.18;;;;;;;20.52;45.85;101586.19;4972105;28;110235;-58
2022/06/05 01:56:14;;;;;;;8.13;5.15;;;;;;;20.50;46.10;101590.81;4968351;28;110066;-58
2022/06/05 01:58:49;;;;;;;8.75;5.22;;;;;;;20.45;45.94;101584.91;4969997;28;123946;-58
2022/06/05 02:01:22;;;;;;;9.95;5.55;;;;;;;20.38;46.17;101574.63;4973354;28;124346;-58
2022/06/05 02:04:15;;;;;;;7.70;5.18;;;;;;;20.34;46.15;101581.22;4970934;28;109589;-58
2022/06/05 02:06:53;;;;;;;6.97;5.20;;;;;;;20.29;46.28;101564.53;4970413;28;108985;-58
2022/06/05 02:09:30;;;;;;;9.55;5.50;;;;;;;20.25;46.49;101568.44;4969754;28;124014;-57
2022/06/05 02:11:57;;;;;;;7.85;5.03;;;;;;;20.22;46.50;101565.97;4973806;28;123919;-57
2022/06/05 02:14:25;;;;;;;7.60;5.30;;;;;;;20.21;46.61;101556.16;4972614;28;109033;-58
2022/06/05 02:16:53;;;;;;;7.15;5.10;;;;;;;20.19;46.58;101556.31;4971283;28;108805;-58
2022/06/05 02:19:22;;;;;;;8.27;5.78;;;;;;;20.17;46.72;101549.31;4970364;28;123937;-58
2022/06/05 02:21:52;;;;;;;8.07;5.40;;;;;;;20.14;46.99;101533.41;4970926;28;124026;-58
2022/06/05 02:24:19;;;;;;;8.45;5.63;;;;;;;20.11;46.82;101528.25;4969585;28;109761;-58
2022/06/05 02:26:46;;;;;;;7.60;5.15;;;;;;;20.09;46.82;101519.44;4968657;28;109091;-58
2022/06/05 02:29:22;;;;;;;9.23;5.30;;;;;;;20.07;47.12;101518.72;4970354;28;125676;-58
2022/06/05 02:31:58;;;;;;;6.93;5.05;;;;;;;20.06;46.92;101506.22;4970045;28;123770;-58
2022/06/05 02:34:34;;;;;;;7.30;5.00;;;;;;;20.02;47.01;101503.78;4972300;28;107431;-58
2022/06/05 02:37:20;;;;;;;9.43;5.28;;;;;;;20.01;46.96;101504.72;4969201;28;109513;-58
2022/06/05 02:40:18;;;;;;;9.02;5.20;;;;;;;19.97;46.94;101495.19;4970859;28;124650;-58
2022/06/05 02:43:23;;;;;;;8.80;5.22;;;;;;;19.94;47.02;101481.97;4969948;28;123896;-58
2022/06/05 02:46:12;;;;;;;8.20;4.90;;;;;;;19.91;47.05;101473.25;4976450;28;110662;-58
2022/06/05 02:48:53;;;;;;;10.45;4.88;;;;;;;19.88;47.12;101463.59;4983757;28;108907;-58
2022/06/05 02:51:28;;;;;;;7.90;4.88;;;;;;;19.86;47.05;101462.88;4967586;28;123875;-57
2022/06/05 02:53:58;;;;;;;7.57;5.00;;;;;;;19.84;47.10;101462.13;4972195;28;123728;-57
2022/06/05 02:56:29;;;;;;;7.88;4.75;;;;;;;19.84;47.04;101467.50;4970309;28;109296;-58
2022/06/05 02:58:58;;;;;;;10.57;5.20;;;;;;;19.84;47.12;101462.13;4986145;28;107978;-58
2022/06/05 03:04:13;;;;;;;8.50;5.40;;;;;;;19.83;47.36;101449.63;4969813;28;125228;-58
2022/06/05 03:06:41;;;;;;;8.98;5.60;;;;;;;19.83;47.06;101450.53;4967373;28;109264;-58
2022/06/05 03:09:09;;;;;;;8.18;4.85;;;;;;;19.84;47.20;101451.38;4971088;28;108714;-58
2022/06/05 03:11:40;;;;;;;8.18;4.95;;;;;;;19.86;47.08;101449.41;4971169;28;124034;-58
2022/06/05 03:14:08;;;;;;;6.90;4.78;;;;;;;19.86;47.11;101443.19;4968546;28;124389;-58
2022/06/05 03:16:35;;;;;;;6.22;4.70;;;;;;;19.85;47.06;101442.31;4970235;28;108968;-58
2022/06/05 03:19:03;;;;;;;9.90;5.60;;;;;;;19.86;46.99;101448.56;4968013;28;108690;-58
2022/06/05 03:21:31;;;;;;;9.68;5.43;;;;;;;19.84;47.10;101446.84;4970966;28;123896;-58
2022/06/05 03:23:58;;;;;;;7.05;4.80;;;;;;;19.82;46.98;101454.16;4969379;28;123841;-58
2022/06/05 03:26:26;;;;;;;6.85;5.00;;;;;;;19.83;47.06;101455.03;4968049;28;109263;-58
2022/06/05 03:28:53;;;;;;;7.78;5.13;;;;;;;19.82;47.10;101453.31;4971881;28;109166;-58
2022/06/05 03:31:20;;;;;;;9.13;5.18;;;;;;;19.82;47.11;101447.94;4969250;28;124094;-58
2022/06/05 03:33:48;;;;;;;7.20;4.53;;;;;;;19.84;47.25;101446.00;4966060;28;124003;-58
2022/06/05 03:36:16;;;;;;;7.85;5.03;;;;;;;19.84;47.16;101440.63;4971913;28;110160;-58
2022/06/05 03:38:44;;;;;;;7.20;4.93;;;;;;;19.84;47.09;101437.94;4969777;28;110616;-58
2022/06/05 03:41:14;;;;;;;7.00;5.18;;;;;;;19.83;46.77;101436.19;4970489;28;124248;-58
2022/06/05 03:43:42;;;;;;;9.23;5.55;;;;;;;19.83;47.11;101433.50;4974169;28;124605;-58
2022/06/05 03:46:13;;;;;;;8.35;5.18;;;;;;;19.83;47.46;101430.81;4975269;28;109908;-58
2022/06/05 03:48:40;;;;;;;8.13;4.63;;;;;;;19.81;47.35;101435.47;4972576;28;109309;-58
2022/06/05 03:51:14;;;;;;;7.70;5.15;;;;;;;19.80;47.63;101439.13;4973131;28;124582;-58
2022/06/05 03:53:42;;;;;;;6.80;5.00;;;;;;;19.79;47.48;101449.00;4971947;28;124001;-58
2022/06/05 03:56:17;;;;;;;7.05;4.97;;;;;;;19.79;47.58;101442.78;4973520;28;109565;-58
2022/06/05 03:58:45;;;;;;;9.48;5.10;;;;;;;19.78;47.51;101441.09;4974015;28;109085;-58
2022/06/05 04:01:16;;;;;;;8.40;5.10;;;;;;;19.78;47.52;101446.47;4970895;28;124444;-58
2022/06/05 04:03:44;;;;;;;7.38;5.00;;;;;;;19.78;47.66;101451.84;4970207;28;125386;-58
2022/06/05 04:06:19;;;;;;;7.65;5.43;;;;;;;19.77;47.79;101455.47;4972778;28;109353;-58
2022/06/05 04:08:47;;;;;;;7.28;5.15;;;;;;;19.77;47.63;101455.47;4972488;28;108667;-58
2022/06/05 04:11:18;;;;;;;10.15;5.68;;;;;;;19.77;47.68;101450.09;4971934;28;124609;-58
2022/06/05 04:13:46;;;;;;;8.57;5.15;;;;;;;19.77;47.59;101444.72;4974675;28;123969;-58
2022/06/05 04:16:20;;;;;;;7.88;5.22;;;;;;;19.76;47.76;101432.25;4972933;28;109277;-57
2022/06/05 04:18:49;;;;;;;8.68;5.53;;;;;;;19.77;47.83;101436.66;4970310;28;109187;-58
2022/06/05 04:21:19;;;;;;;7.85;5.25;;;;;;;19.79;47.71;101429.34;4973979;28;124435;-58
2022/06/05 04:23:47;;;;;;;9.50;5.50;;;;;;;19.79;47.64;101432.03;4974197;28;123918;-58
2022/06/05 04:26:17;;;;;;;9.23;5.72;;;;;;;19.80;47.84;101423.00;4972333;28;109561;-58
2022/06/05 04:28:44;;;;;;;7.65;5.57;;;;;;;19.81;47.80;101424.72;4973714;28;109812;-58
2022/06/05 04:31:22;;;;;;;10.50;5.72;;;;;;;19.80;47.94;101425.69;4971757;28;124134;-58
2022/06/05 04:33:52;;;;;;;8.90;5.22;;;;;;;19.78;48.10;101425.81;4968895;28;123116;-58
2022/06/05 04:36:20;;;;;;;7.53;5.05;;;;;;;19.78;47.93;101430.34;4972486;28;109605;-58
2022/06/05 04:38:47;;;;;;;7.95;5.28;;;;;;;19.78;47.98;101435.72;4970934;28;108777;-58
2022/06/05 04:41:15;;;;;;;9.02;5.90;;;;;;;19.78;48.07;101422.28;4972190;28;124454;-58
2022/06/05 04:43:42;;;;;;;8.18;5.68;;;;;;;19.77;48.02;101433.97;4972310;28;123984;-58
2022/06/05 04:46:10;;;;;;;7.65;5.50;;;;;;;19.77;48.09;101434.81;4970739;28;109589;-58
2022/06/05 04:48:38;;;;;;;7.15;5.18;;;;;;;19.77;48.17;101433.97;4972997;28;108792;-58
2022/06/05 04:51:08;;;;;;;11.50;5.50;;;;;;;19.76;48.39;101426.88;4973600;28;124773;-58
2022/06/05 04:53:35;;;;;;;10.48;5.88;;;;;;;19.75;48.33;101430.56;4971161;28;124497;-58
2022/06/05 04:56:06;;;;;;;9.02;5.47;;;;;;;19.74;48.43;101429.69;4971615;28;110740;-58
2022/06/05 04:58:33;;;;;;;11.68;5.53;;;;;;;19.77;48.35;101439.34;4972201;28;108750;-58
2022/06/05 05:01:00;;;;;;;8.55;5.68;;;;;;;19.78;48.29;101435.72;4973430;28;123854;-58
2022/06/05 05:03:28;;;;;;;9.35;5.97;;;;;;;19.80;48.49;101423.00;4971386;28;124238;-58
2022/06/05 05:05:55;;;;;;;8.57;5.50;;;;;;;19.80;48.38;101423.84;4972943;28;109291;-58
2022/06/05 05:08:22;;;;;;;9.35;5.82;;;;;;;19.82;48.45;101429.13;4971794;28;108939;-57
2022/06/05 05:10:49;;;;;;;8.65;5.82;;;;;;;19.83;48.29;101428.13;4972224;28;124689;-58
2022/06/05 05:13:16;;;;;;;12.23;6.00;;;;;;;19.83;48.53;101433.50;4986340;28;122906;-58
2022/06/05 05:15:52;;;;;;;9.52;5.60;;;;;;;19.83;48.55;101428.13;4972500;28;109547;-58
2022/06/05 05:18:20;;;;;;;8.95;6.10;;;;;;;19.84;48.42;101425.34;4968898;28;110307;-58
2022/06/05 05:20:47;;;;;;;7.90;5.90;;;;;;;19.84;48.59;101436.09;4970789;28;124137;-57
2022/06/05 05:23:14;;;;;;;8.07;5.32;;;;;;;19.86;48.46;101438.66;4971911;28;124604;-57
2022/06/05 05:25:41;;;;;;;9.32;5.72;;;;;;;19.86;48.52;101438.66;4968777;28;109243;-57
2022/06/05 05:28:08;;;;;;;10.40;5.80;;;;;;;19.88;48.32;101436.72;4969948;28;109449;-57
2022/06/05 05:30:37;;;;;;;9.00;5.78;;;;;;;19.92;48.52;101431.97;4973755;28;124170;-58
2022/06/05 05:33:05;;;;;;;9.30;6.05;;;;;;;19.94;48.40;101447.00;4971333;28;124291;-58
2022/06/05 05:35:32;;;;;;;8.45;5.22;;;;;;;19.97;48.21;101446.78;4966896;28;109075;-58
2022/06/05 05:37:59;;;;;;;10.27;5.65;;;;;;;20.00;48.27;101449.25;4971402;28;108754;-58
2022/06/05 05:43:11;;;;;;;10.07;5.60;;;;;;;20.06;48.50;101447.06;4973946;28;123964;-58
2022/06/05 05:45:39;;;;;;;8.20;5.47;;;;;;;20.07;48.23;101432.66;4971302;28;109273;-58
2022/06/05 05:48:06;;;;;;;6.38;4.85;;;;;;;20.10;48.31;101429.72;4971836;28;109227;-58
2022/06/05 05:50:33;;;;;;;8.27;5.18;;;;;;;20.12;48.21;101433.16;4956142;28;123991;-58
2022/06/05 05:53:01;;;;;;;7.30;5.38;;;;;;;20.13;48.26;101429.50;4971449;28;124615;-58
2022/06/05 05:55:28;;;;;;;9.27;6.20;;;;;;;20.15;48.28;101438.28;4970055;28;109264;-58
2022/06/05 05:57:55;;;;;;;9.70;5.93;;;;;;;20.17;48.33;101430.97;4974037;28;109836;-58
2022/06/05 06:00:23;;;;;;;8.98;5.22;;;;;;;20.19;48.46;101429.91;4973588;28;124046;-58
2022/06/05 06:02:50;;;;;;;8.10;5.28;;;;;;;20.24;48.38;101421.47;4966784;28;123741;-58
2022/06/05 06:05:20;;;;;;;9.25;5.93;;;;;;;20.27;48.68;101421.22;4971743;28;110233;-58
2022/06/05 06:07:47;;;;;;;9.98;5.80;;;;;;;20.30;48.49;101418.28;4970164;28;108922;-60
2022/06/05 06:10:14;;;;;;;8.50;5.63;;;;;;;20.33;48.58;101420.75;4972791;28;123869;-59
2022/06/05 06:12:42;;;;;;;8.88;6.05;;;;;;;20.36;48.71;101415.16;4972134;28;123670;-59
2022/06/05 06:15:10;;;;;;;8.82;5.28;;;;;;;20.38;48.73;101413.19;4969378;28;109734;-60
2022/06/05 06:17:37;;;;;;;9.10;5.93;;;;;;;20.41;48.60;101410.25;4972436;28;109375;-60
2022/06/05 06:20:05;;;;;;;7.30;5.85;;;;;;;20.47;48.65;101410.75;4973329;28;124571;-60
2022/06/05 06:22:34;;;;;;;8.45;5.75;;;;;;;20.50;48.52;101399.75;4972496;28;124080;-60
2022/06/05 06:25:04;;;;;;;8.50;5.63;;;;;;;20.53;48.45;101404.88;4973279;28;109378;-60
2022/06/05 06:27:31;;;;;;;6.35;5.38;;;;;;;20.55;48.48;101397.53;4961800;28;109006;-59
2022/06/05 06:29:58;;;;;;;10.70;5.63;;;;;;;20.56;48.42;101391.19;4965799;28;124748;-60
2022/06/05 06:32:25;;;;;;;9.80;5.97;;;;;;;20.58;48.57;101387.41;4963657;28;123882;-60
2022/06/05 06:34:52;;;;;;;7.38;5.22;;;;;;;20.60;48.46;101382.78;4967085;28;108979;-60
2022/06/05 06:37:20;;;;;;;9.70;5.78;;;;;;;20.63;48.50;101389.78;4969574;28;109159;-59
2022/06/05 06:39:47;;;;;;;7.95;5.47;;;;;;;20.66;48.57;101384.13;4971596;28;123957;-59
2022/06/05 06:42:14;;;;;;;8.48;5.63;;;;;;;20.70;48.54;101385.63;4971580;28;123918;-59
2022/06/05 06:44:42;;;;;;;8.75;5.88;;;;;;;20.75;48.39;101380.72;4959468;28;108450;-60
2022/06/05 06:47:10;;;;;;;7.43;5.85;;;;;;;20.80;48.48;101366.91;4970864;28;108666;-59
2022/06/05 06:49:37;;;;;;;8.77;5.97;;;;;;;20.85;48.40;101366.50;4971669;28;125252;-59
2022/06/05 06:52:05;;;;;;;9.15;6.00;;;;;;;20.89;48.50;101358.09;4956480;28;124301;-59
2022/06/05 06:54:32;;;;;;;8.43;6.10;;;;;;;20.94;48.35;101355.00;4970368;28;110363;-59
2022/06/05 06:56:59;;;;;;;8.07;5.70;;;;;;;20.99;48.42;101347.41;4959901;28;110271;-60
2022/06/05 06:59:28;;;;;;;8.32;5.60;;;;;;;21.05;48.33;101341.53;4962847;28;124382;-58
2022/06/05 07:01:55;;;;;;;7.38;5.53;;;;;;;21.11;48.50;101346.41;4964155;28;124726;-58
2022/06/05 07:04:22;;;;;;;7.13;5.43;;;;;;;21.17;48.37;101335.16;4958811;28;109817;-58
2022/06/05 07:06:50;;;;;;;7.78;5.65;;;;;;;21.26;48.41;101333.50;4973586;28;108757;-58
2022/06/05 07:09:17;;;;;;;8.07;6.20;;;;;;;21.34;48.31;101330.19;4971012;28;124519;-58
2022/06/05 07:11:45;;;;;;;9.90;5.75;;;;;;;21.41;47.95;101319.75;4970017;28;124060;-58
2022/06/05 07:14:12;;;;;;;8.98;5.32;;;;;;;21.46;48.06;101318.44;4971816;28;109022;-58
2022/06/05 07:16:40;;;;;;;7.35;5.22;;;;;;;21.57;47.91;101315.69;4968984;28;108787;-59
2022/06/05 07:19:07;;;;;;;6.78;5.22;;;;;;;21.68;48.10;101311.22;4974287;28;123944;-59
2022/06/05 07:21:34;;;;;;;6.30;5.18;;;;;;;21.80;47.77;101310.19;4976286;28;124516;-58
2022/06/05 07:24:02;;;;;;;8.75;5.82;;;;;;;21.89;47.62;101304.00;4973322;28;109263;-59
2022/06/05 07:26:31;;;;;;;7.20;5.53;;;;;;;21.96;47.52;101293.53;4972239;28;108814;-59
2022/06/05 07:28:59;;;;;;;6.90;5.50;;;;;;;22.06;47.67;101293.63;4974639;28;124711;-59
2022/06/05 07:31:29;;;;;;;8.02;5.65;;;;;;;22.15;47.43;101292.78;4975737;28;124187;-58
2022/06/05 07:33:58;;;;;;;6.97;5.25;;;;;;;22.26;47.34;101287.34;4973540;28;110266;-58
2022/06/05 07:36:26;;;;;;;8.23;5.72;;;;;;;22.37;47.34;101280.16;4974948;28;108898;-58
2022/06/05 07:38:55;;;;;;;6.85;5.53;;;;;;;22.46;47.16;101273.97;4972635;28;124122;-58
2022/06/05 07:41:29;;;;;;;7.10;5.47;;;;;;;22.53;47.03;101275.13;4974949;28;124265;-58
2022/06/05 07:43:58;;;;;;;7.40;5.32;;;;;;;22.59;47.08;101274.56;4971832;28;110160;-58
2022/06/05 07:46:26;;;;;;;8.43;5.95;;;;;;;22.70;46.99;101268.22;4960610;28;109945;-58
2022/06/05 07:48:54;;;;;;;7.90;5.78;;;;;;;22.81;46.85;101268.09;4959735;28;124664;-58
2022/06/05 07:54:32;;;;;;;7.63;5.72;;;;;;;23.00;46.59;101272.69;4975486;28;108856;-58
2022/06/05 07:57:10;;;;;;;7.22;5.72;;;;;;;23.12;46.42;101255.38;4973173;28;109218;-58
2022/06/05 07:59:40;;;;;;;7.07;5.75;;;;;;;23.20;46.43;101248.41;4973875;28;123637;-58
2022/06/05 08:02:11;;;;;;;7.38;5.72;;;;;;;23.26;46.29;101248.72;4971629;28;124288;-58
2022/06/05 08:04:40;;;;;;;9.35;6.22;;;;;;;23.32;46.12;101250.84;4965632;28;109450;-58
2022/06/05 08:07:11;;;;;;;6.88;5.57;;;;;;;23.40;46.14;101247.41;4974136;28;109631;-58
2022/06/05 08:09:39;;;;;;;5.93;4.82;;;;;;;23.48;46.10;101236.72;4961426;28;123980;-58
2022/06/05 08:12:08;;;;;;;8.27;5.60;;;;;;;23.62;46.35;101229.16;4974127;28;123829;-58
2022/06/05 08:14:37;;;;;;;7.25;5.63;;;;;;;23.77;46.59;101227.75;4972601;28;109625;-58
2022/06/05 08:17:07;;;;;;;6.68;5.50;;;;;;;23.92;46.17;101230.00;4973219;28;109066;-58
2022/06/05 08:19:38;;;;;;;6.80;5.55;;;;;;;24.04;45.87;101218.00;4973863;28;124353;-58
2022/06/05 08:22:07;;;;;;;6.18;5.32;;;;;;;24.13;45.66;101222.53;4972822;28;127278;-58
2022/06/05 08:24:35;;;;;;;6.97;5.60;;;;;;;24.22;45.42;101221.66;4975062;28;108504;-58
2022/06/05 08:27:10;;;;;;;8.05;5.18;;;;;;;24.31;45.41;101219.03;4975016;28;108351;-58
2022/06/05 08:29:38;;;;;;;6.38;5.50;;;;;;;24.40;45.39;101218.13;4973600;28;124157;-58
2022/06/05 08:32:07;;;;;;;6.13;5.05;;;;;;;24.49;45.37;101217.25;4990108;28;123547;-58
2022/06/05 08:34:34;;;;;;;7.38;4.80;;;;;;;24.60;45.11;101217.06;4972668;28;110552;-58
2022/06/05 08:42:48;;;;;;;6.57;5.10;;;;;;;24.91;45.01;101224.00;4974543;28;123768;-58
2022/06/05 08:45:22;;;;;;;7.18;5.60;;;;;;;25.06;45.05;101228.72;4967619;28;109746;-58
2022/06/05 08:48:02;;;;;;;9.55;5.75;;;;;;;25.23;45.00;101215.34;4973906;28;108858;-60
2022/06/05 08:50:47;;;;;;;6.38;5.70;;;;;;;25.41;44.62;101218.91;4957398;28;125044;-60
2022/06/05 08:53:26;;;;;;;6.30;5.10;;;;;;;25.54;43.90;101223.03;4955430;28;123873;-60
2022/06/05 08:55:55;;;;;;;6.03;5.28;;;;;;;25.61;44.07;101224.13;4967882;28;109186;-60
2022/06/05 08:58:30;;;;;;;6.22;5.07;;;;;;;25.67;43.44;101212.63;4971875;28;109031;-60
2022/06/05 09:01:10;;;;;;;5.72;5.18;;;;;;;25.76;44.06;101222.53;4974523;28;124087;-60
2022/06/05 09:03:47;;;;;;;5.75;4.93;;;;;;;25.87;43.60;101223.28;4972606;28;124092;-60
2022/06/05 09:06:23;;;;;;;7.05;5.32;;;;;;;25.93;43.46;101217.25;4962488;28;109504;-60
2022/06/05 09:08:56;;;;;;;7.38;5.65;;;;;;;26.00;43.57;101223.75;4972649;28;109004;-60
2022/06/05 09:11:38;;;;;;;6.65;5.72;;;;;;;26.04;43.29;101219.69;4971898;28;124787;-59
2022/06/05 09:14:12;;;;;;;5.72;5.18;;;;;;;26.08;43.48;101223.78;4961749;28;123143;-60
2022/06/05 09:16:51;;;;;;;5.97;5.33;;;;;;;26.13;43.54;101221.44;4973298;28;109191;-60
2022/06/05 09:19:23;;;;;;;6.60;5.90;;;;;;;26.20;43.07;101217.06;4972564;28;108282;-60
2022/06/05 09:22:13;;;;;;;7.82;6.15;;;;;;;26.27;42.78;101219.13;4973988;28;124240;-60
2022/06/05 09:25:12;;;;;;;9.52;5.88;;;;;;;26.28;42.92;101215.41;4969086;28;124014;-60
2022/06/05 09:28:07;;;;;;;6.45;5.78;;;;;;;26.28;42.54;101215.41;4970154;28;109874;-60
2022/06/05 09:30:57;;;;;;;5.82;5.18;;;;;;;26.25;42.81;101213.84;4959535;28;110076;-60
2022/06/05 09:33:30;;;;;;;7.63;5.88;;;;;;;26.27;42.64;101205.53;4953520;28;124110;-60
2022/06/05 09:36:05;;;;;;;7.22;6.22;;;;;;;26.27;42.66;101219.13;4956893;28;124194;-60
2022/06/05 09:38:40;;;;;;;6.80;5.55;;;;;;;26.23;42.75;101214.00;4955609;28;109142;-60
2022/06/05 09:41:12;;;;;;;6.45;5.57;;;;;;;26.18;42.29;101210.94;4952299;28;108618;-60
2022/06/05 09:44:07;;;;;;;7.20;6.40;;;;;;;26.13;42.48;101202.44;4970396;28;124693;-60
2022/06/05 09:46:45;;;;;;;7.82;6.47;;;;;;;26.11;42.35;101201.75;4971557;28;123753;-60
2022/06/05 09:49:22;;;;;;;6.95;5.80;;;;;;;26.08;42.57;101193.91;4973813;28;109178;-59
2022/06/05 09:51:49;;;;;;;7.35;6.65;;;;;;;26.03;42.54;101188.97;4971938;28;109009;-59
2022/06/05 09:54:19;;;;;;;7.32;6.63;;;;;;;26.00;42.49;101191.16;4972401;28;124593;-59
2022/06/05 10:00:33;;;;;;;7.35;6.55;;;;;;;25.87;42.80;101188.00;4969473;28;108322;-59
2022/06/05 10:03:04;;;;;;;7.22;6.53;;;;;;;25.81;42.84;101187.63;4967700;28;108864;-60
2022/06/05 10:05:37;;;;;;;8.10;6.72;;;;;;;25.77;42.73;101175.41;4973122;28;124021;-59
2022/06/05 10:08:16;;;;;;;7.75;6.70;;;;;;;25.75;43.05;101172.00;4969494;28;124730;-60
2022/06/05 10:10:46;;;;;;;9.02;7.00;;;;;;;25.73;42.81;101171.31;4969503;28;109293;-59
2022/06/05 10:13:42;;;;;;;9.63;7.07;;;;;;;25.69;43.36;101167.19;4971206;28;108695;-60
2022/06/05 10:16:19;;;;;;;8.05;7.25;;;;;;;25.66;43.43;101167.53;4979364;28;123532;-60
2022/06/05 10:19:07;;;;;;;9.60;6.85;;;;;;;25.67;43.14;101165.66;4970187;28;123910;-60
2022/06/05 10:21:41;;;;;;;7.85;6.68;;;;;;;25.64;43.52;101164.97;4969643;28;110296;-60
2022/06/05 10:24:37;;;;;;;8.93;7.30;;;;;;;25.63;43.50;101167.84;4972748;28;109157;-60
2022/06/05 10:27:05;;;;;;;9.40;7.60;;;;;;;25.64;43.28;101164.13;4969907;28;124124;-59
2022/06/05 10:29:37;;;;;;;9.65;7.53;;;;;;;25.63;43.61;101160.56;4969503;28;124010;-59
2022/06/05 10:32:24;;;;;;;8.80;7.07;;;;;;;25.62;43.53;101158.88;4968543;28;110484;-59
2022/06/05 10:35:00;;;;;;;7.85;7.03;;;;;;;25.60;43.58;101162.75;4971672;28;108748;-59
2022/06/05 10:37:43;;;;;;;9.13;7.15;;;;;;;25.55;43.57;101159.66;4954630;28;123099;-60
2022/06/05 10:40:16;;;;;;;9.68;7.80;;;;;;;25.52;43.91;101159.97;4969121;28;123895;-60
2022/06/05 10:43:01;;;;;;;8.50;7.53;;;;;;;25.47;44.37;101156.88;4974341;28;109499;-59
2022/06/05 10:45:35;;;;;;;9.15;7.97;;;;;;;25.44;44.43;101164.31;4973192;28;109429;-59
2022/06/05 10:48:15;;;;;;;9.25;8.10;;;;;;;25.39;44.64;101161.25;4966885;28;123958;-59
2022/06/05 10:50:49;;;;;;;8.93;7.72;;;;;;;25.34;44.81;101150.03;4962359;28;124275;-59
2022/06/05 10:53:16;;;;;;;10.15;8.23;;;;;;;25.30;45.08;101156.78;4970814;28;109461;-59
2022/06/05 10:55:58;;;;;;;10.75;7.95;;;;;;;25.23;44.93;101155.69;4974141;28;109769;-59
2022/06/05 10:58:45;;;;;;;10.95;8.07;;;;;;;25.16;44.89;101154.59;4973583;28;123640;-59
2022/06/05 11:01:12;;;;;;;8.32;7.47;;;;;;;25.13;44.84;101154.91;4961163;28;124267;-60
2022/06/05 11:03:52;;;;;;;9.80;7.93;;;;;;;25.10;45.25;101155.22;4975766;28;109465;-60
2022/06/05 11:06:36;;;;;;;9.93;7.60;;;;;;;25.07;45.58;101145.53;4975181;28;108121;-60
2022/06/05 11:09:35;;;;;;;9.73;7.78;;;;;;;25.05;45.73;101143.00;4971796;28;125498;-60
2022/06/05 11:15:02;;;;;;;12.35;8.07;;;;;;;25.02;45.76;101137.88;4970313;28;110595;-60
2022/06/05 11:17:39;;;;;;;9.98;7.53;;;;;;;24.99;45.91;101132.75;4974322;28;109968;-60
2022/06/05 11:20:14;;;;;;;9.98;7.40;;;;;;;24.98;45.87;101131.06;4975170;28;124144;-60
2022/06/05 11:23:19;;;;;;;8.93;7.72;;;;;;;24.95;45.85;101131.38;4975061;28;123540;-60
2022/06/05 11:26:08;;;;;;;11.05;8.07;;;;;;;24.92;46.13;101131.72;4974075;28;109679;-60
2022/06/05 11:29:04;;;;;;;14.50;8.52;;;;;;;24.86;46.69;101127.75;4972724;28;108794;-60
2022/06/05 11:31:42;;;;;;;11.88;9.00;;;;;;;24.77;46.95;101138.66;4971368;28;123293;-60
2022/06/05 11:34:32;;;;;;;13.10;8.18;;;;;;;24.65;47.66;101141.59;4971819;28;123950;-60
2022/06/05 11:37:11;;;;;;;13.80;8.30;;;;;;;24.44;47.97;101143.72;4974631;28;109236;-60
2022/06/05 11:39:48;;;;;;;10.95;8.18;;;;;;;24.24;48.41;101138.44;4971049;28;109121;-61
2022/06/05 11:42:26;;;;;;;10.82;8.70;;;;;;;24.01;48.85;101137.13;4967377;28;124531;-62
2022/06/05 11:44:57;;;;;;;11.82;8.98;;;;;;;23.82;49.62;101138.91;4974534;28;124188;-60
2022/06/05 11:47:50;;;;;;;13.63;9.57;;;;;;;23.71;50.15;101136.34;4973434;28;108264;-62
2022/06/05 11:50:27;;;;;;;12.95;9.43;;;;;;;23.59;50.28;101121.31;4974779;28;108734;-63
2022/06/05 11:53:09;;;;;;;11.38;9.20;;;;;;;23.45;50.72;101118.09;4973880;28;123046;-63
2022/06/05 11:55:45;;;;;;;11.52;9.93;;;;;;;23.36;51.19;101100.03;4965783;28;123884;-61
2022/06/05 11:58:19;;;;;;;13.02;10.02;;;;;;;23.31;51.58;101097.75;4965323;28;109249;-62
2022/06/05 12:01:20;;;;;;;13.13;10.33;;;;;;;23.24;51.39;101101.19;4972718;28;109965;-61
2022/06/05 12:04:19;;;;;;;13.20;10.23;;;;;;;23.18;51.83;101099.06;4959644;28;124046;-61
2022/06/05 12:06:51;;;;;;;12.50;10.00;;;;;;;23.11;52.46;101091.56;4970558;28;123927;-62